Tompkins, Canada
Current Conditions -  °F | °C
As of 4:00 PM on Wednesday 22 Oct 2014 (Local Time) from CYYN Reporting Station
Clear Clear  
Wind Chill: 59°   Ceiling: Unl
Heat Index: 59°   Visibility: 9mi
Dew Point: 36°   Wind: 14mph
Humidity: 42%   Direction: 270°W
Pressure: 29.76"   Gusts: 20mph
Location:  50.07°N, 108.8°W
Report Text: CYYN 222200Z AUTO 27012G17KT 9SM CLR 15/02 A2976 RMK SLP084 DENSITY ALT 3400FT
Loading
Personal Weather Stations






























Interactive Weather Map New forecast layout! Learn more

10-Day Weather Forecast

Advertisements
Track Severe Weather on mobile